Rui Monteiro

Recruteur - Porto
22 Févr 2028
Mardi
Processus

Personnalité

Adaptabilité (8) Ambition (8) Controverse (1) Loyauté (2) Pression (13) Professionnalisme (14) Sportivité (9) Tempérament (8)

Profil

Style d'entraînement Démocratique
Diplôme Continental A
Détermination 6
Gestion des joueurs 6
Motivation 7
Discipline 7
Satisfaction professionnelle
100%
Fatigue
0%
Rôle Recruteur
Salaire 114.2K p/s
Contrat 14.03.2029

Performance

Comportement Bon
Efficacité de l'entraînement
61%
Développement des joueurs
65%
Prévention des blessures
30%
Mise en place tactique
55%

Événements récents

A participé à une réunion de recrutement 7j
A participé à une réunion de recrutement 14j
A évalué un joueur 21j
A participé à une réunion de recrutement 21j
A observé un match 21j
A participé à une réunion de recrutement 28j
A observé un match 28j
En formation continue 35j

Suivi en cours

60
Joueur Club Statut Capacité Confiance Observé Dernière observation Dernier vote
Declan Rice Arsenal Actif 196 / 184 40% 5 31.01.2028 -
Matthijs de Ligt Manchester United Actif 165 / 169 40% 2 31.01.2028 -
Chuchu Ramírez Nacional Actif 137 / 138 58% 1 03.01.2028 -
Michael Cooper Sheffield United Actif 144 / 132 40% 1 31.12.2027 -
Filip Stanković Virtus Entella Actif 136 / 137 40% 1 31.12.2027 -
Sven Botman Newcastle United Actif 161 / 160 40% 2 26.12.2027 -
Enzo Barrenechea Betis Actif 155 / 156 40% 2 26.12.2027 -
Gavi Barcelona Actif 173 / 163 40% 2 24.12.2027 -
Jan Paul van Hecke Tottenham Actif 155 / 163 40% 3 24.12.2027 -
Pedro Porro Tottenham Actif 159 / 150 40% 2 22.12.2027 -
José Ángel Carmona Sevilla Actif 157 / 154 40% 1 22.12.2027 -
Reece James Chelsea Actif 183 / 174 40% 4 17.12.2027 -
Omar El Hilali Espanyol Actif 162 / 151 40% 2 13.12.2027 -
Tino Livramento Newcastle United Actif 165 / 165 40% 3 12.12.2027 -
Jake O'Brien Everton Actif 144 / 152 40% 1 12.12.2027 -
Ryan Gravenberch Liverpool Actif 156 / 165 40% 1 11.12.2027 -
Kobbie Mainoo Leicester City Actif 152 / 160 40% 2 10.12.2027 -
Abdukodir Khusanov Coventry City Actif 154 / 164 40% 1 10.12.2027 -
Nico González Newcastle United Actif 174 / 168 40% 1 09.12.2027 -
Roméo Lavia Blackburn Rovers Actif 143 / 159 40% 1 09.12.2027 -
Martín Zubimendi Arsenal Actif 160 / 172 40% 2 02.12.2027 -
Vitinha Paris Saint-Germain Actif 172 / 179 40% 2 29.11.2027 -
Wesley Fofana Chelsea Actif 166 / 168 40% 1 29.11.2027 -
Alexis Mac Allister Liverpool Actif 169 / 165 40% 4 28.11.2027 -
Adam Wharton Crystal Palace Actif 159 / 156 40% 2 26.11.2027 -
Natan Betis Actif 163 / 154 40% 1 26.11.2027 -
Conor Gallagher Tottenham Actif 168 / 160 40% 2 25.11.2027 -
Conor Bradley Bristol City Actif 168 / 159 40% 3 24.11.2027 -
Arnau Martínez Valencia Actif 142 / 156 40% 1 24.11.2027 -
Ismaël Bennacer Malmo FF Actif 154 / 150 40% 7 21.11.2027 -
Sergio Gómez Real Sociedad Actif 160 / 143 40% 1 20.11.2027 -
Sandro Tonali Tottenham Actif 168 / 178 40% 1 16.11.2027 -
André Wolverhampton Actif 150 / 151 40% 1 15.11.2027 -
Moisés Caicedo Chelsea Actif 163 / 174 40% 3 14.11.2027 -
Jakub Kiwior Everton Actif 169 / 164 40% 1 14.11.2027 -
Tyler Adams Bournemouth Actif 167 / 161 40% 1 09.11.2027 -
Aurélien Tchouaméni Real Madrid Actif 163 / 169 40% 2 08.11.2027 -
Piero Hincapié Arsenal Actif 171 / 160 40% 1 08.11.2027 -
Alex Scott Bournemouth Actif 149 / 158 40% 3 03.11.2027 -
Achraf Hakimi Paris Saint-Germain Actif 194 / 182 40% 1 27.10.2027 -
Joško Gvardiol Napoli Actif 178 / 163 40% 2 20.10.2027 -
Melvin Bard OGC Nice Actif 142 / 149 40% 1 18.10.2027 -
Jack Hinshelwood Brighton Actif 144 / 149 40% 1 18.10.2027 -
Gabriel Arsenal Actif 182 / 178 40% 2 15.10.2027 -
Bruno Guimarães Arsenal Actif 166 / 174 40% 2 11.10.2027 -
Yehor Yarmoliuk Brentford Actif 164 / 154 40% 2 30.09.2027 -
William Saliba Arsenal Actif 172 / 184 40% 1 27.09.2027 -
Micky van de Ven Tottenham Actif 158 / 166 40% 1 27.09.2027 -
Maximiliano Araújo Crystal Palace Actif 148 / 159 40% 1 24.09.2027 -
Lisandro Martínez Manchester United Actif 167 / 161 40% 1 21.09.2027 -
Riccardo Calafiori Hull City Actif 156 / 167 40% 1 17.09.2027 -
Miloš Kerkez Liverpool Actif 170 / 157 40% 1 17.09.2027 -
Amadou Onana Aston Villa Actif 149 / 157 40% 1 08.09.2027 -
Anton Stach Leeds United Actif 159 / 157 40% 1 07.09.2027 -
Jeremie Frimpong Liverpool Actif 166 / 166 40% 1 07.09.2027 -
Gustavo Silva Vitoria Guimaraes Actif 131 / 125 58% 1 02.06.2027 -
Gustaf Lagerbielke Braga Actif 146 / 142 58% 1 01.06.2027 -
Senne Lammens Manchester United Actif 159 / 157 40% 1 31.05.2027 -
Tomoki Hayakawa Kashima Antlers Actif 157 / 149 40% 1 31.05.2027 -
Noussair Mazraoui Manchester United Actif 156 / 149 40% 1 31.12.2026 -